Time;durP1;ratioP1;P1;durP2;ratioP2;P2;SDS_P1;SDS_P2;PMS_P1;PMS_P2;Temp;Humidity;BMP_temperature;BMP_pressure;BME280_temperature;BME280_humidity;BME280_pressure;Samples;Min_cycle;Max_cycle;Signal;HPM_P1;HPM_P2
2021/11/17 02:26:56;;;;;;;55.08;29.10;;;;;;;11.27;81.36;101021.75;4938720;28;19914;-63
2021/11/17 02:29:43;;;;;;;41.75;22.60;;;;;;;11.26;81.29;101022.84;4958433;28;20050;-63
2021/11/17 02:32:46;;;;;;;50.03;27.55;;;;;;;11.20;81.37;101014.03;4936516;28;20044;-63
2021/11/17 02:35:38;;;;;;;53.90;30.10;;;;;;;11.15;81.69;101019.59;4946924;28;20047;-62
2021/11/17 02:38:41;;;;;;;51.00;29.42;;;;;;;11.17;81.82;101013.84;4957082;28;20043;-62
2021/11/17 02:42:06;;;;;;;56.03;30.90;;;;;;;11.21;81.43;101015.63;4935763;28;20040;-63
2021/11/17 02:45:05;;;;;;;48.95;27.55;;;;;;;11.21;81.35;101007.47;4909248;29;20047;-62
2021/11/17 02:48:07;;;;;;;53.80;29.27;;;;;;;11.23;81.43;101005.22;4954040;29;20424;-62
2021/11/17 02:50:58;;;;;;;53.22;30.45;;;;;;;11.23;81.37;101012.56;4957085;28;20047;-62
2021/11/17 02:54:00;;;;;;;54.22;29.67;;;;;;;11.23;81.81;101012.56;4930174;29;20048;-61
2021/11/17 02:57:06;;;;;;;55.33;28.50;;;;;;;11.21;82.00;101017.53;4938434;29;20048;-62
2021/11/17 03:00:30;;;;;;;53.92;29.30;;;;;;;11.21;81.94;101012.91;4946885;28;20413;-63
2021/11/17 03:03:15;;;;;;;51.05;28.88;;;;;;;11.22;82.32;101021.88;4943168;28;20035;-62
2021/11/17 03:06:15;;;;;;;41.28;23.27;;;;;;;11.28;81.98;101015.16;4941449;28;20513;-63
2021/11/17 03:09:18;;;;;;;53.67;29.73;;;;;;;11.17;82.47;101014.66;4955742;28;20043;-61
2021/11/17 03:12:12;;;;;;;58.13;30.73;;;;;;;11.17;82.42;101016.56;4942712;28;20047;-61
2021/11/17 03:15:25;;;;;;;52.60;29.93;;;;;;;11.19;82.55;101015.13;4939311;28;20032;-63
2021/11/17 03:18:10;;;;;;;55.65;30.75;;;;;;;11.22;82.43;101021.88;4960121;28;20046;-64
2021/11/17 03:21:24;;;;;;;54.55;31.15;;;;;;;11.21;82.13;101017.53;4954068;28;20047;-62
2021/11/17 03:24:19;;;;;;;57.72;29.95;;;;;;;11.14;82.43;101016.06;4950748;28;20464;-62
2021/11/17 03:27:19;;;;;;;56.97;30.08;;;;;;;11.05;82.63;101026.09;4953320;28;20043;-62
2021/11/17 03:30:20;;;;;;;54.75;29.13;;;;;;;11.08;82.54;101011.88;4948735;28;20040;-62
2021/11/17 03:33:28;;;;;;;59.72;32.03;;;;;;;11.11;82.70;101010.44;4939244;28;20044;-63
2021/11/17 03:36:38;;;;;;;57.17;30.73;;;;;;;11.00;82.88;101015.34;4959837;28;20039;-62
2021/11/17 03:39:45;;;;;;;57.10;31.23;;;;;;;11.06;83.14;101008.66;4958503;28;20417;-63
2021/11/17 03:42:54;;;;;;;55.75;32.17;;;;;;;11.02;83.15;101013.09;4935519;29;20763;-62
2021/11/17 03:46:01;;;;;;;57.15;30.92;;;;;;;11.07;83.00;101012.19;4944315;29;20039;-62
2021/11/17 03:49:18;;;;;;;61.33;31.70;;;;;;;11.06;82.51;101011.38;4958049;28;20043;-62
2021/11/17 03:52:09;;;;;;;50.70;30.25;;;;;;;11.11;82.57;101010.44;4936091;29;20044;-63
2021/11/17 03:54:57;;;;;;;52.88;29.23;;;;;;;11.08;82.44;101005.63;4942068;29;20035;-62
2021/11/17 03:58:12;;;;;;;52.92;29.73;;;;;;;11.09;nan;101013.47;4955646;28;20043;-62
2021/11/17 04:01:09;;;;;;;54.53;29.85;;;;;;;11.13;82.78;101011.72;4956227;28;20042;-62
2021/11/17 04:04:01;;;;;;;54.00;31.02;;;;;;;11.11;82.08;101005.81;4945047;29;20051;-63
2021/11/17 04:07:04;;;;;;;54.63;30.23;;;;;;;11.13;82.48;101009.00;4948257;29;20036;-63
2021/11/17 04:09:58;;;;;;;50.50;29.02;;;;;;;11.11;82.48;101005.81;4951145;28;20044;-64
2021/11/17 04:13:04;;;;;;;54.75;28.30;;;;;;;11.11;81.92;101005.00;4952246;28;20449;-64
2021/11/17 04:15:58;;;;;;;51.05;27.70;;;;;;;11.06;82.46;101008.66;4933932;29;20047;-62
2021/11/17 04:18:54;;;;;;;41.75;22.95;;;;;;;11.06;82.55;100991.53;4934258;29;20044;-62
2021/11/17 04:22:06;;;;;;;59.58;29.52;;;;;;;11.06;82.59;101002.41;4948612;28;20043;-62
2021/11/17 04:25:05;;;;;;;57.22;28.38;;;;;;;11.13;82.64;100995.41;4945527;28;20510;-63
2021/11/17 04:28:01;;;;;;;57.67;29.00;;;;;;;11.11;82.53;100999.56;4938778;29;20035;-63
2021/11/17 04:31:13;;;;;;;59.67;32.17;;;;;;;11.16;82.08;100996.72;4959558;28;20047;-63
2021/11/17 04:34:19;;;;;;;59.00;30.83;;;;;;;11.13;82.23;101006.28;4939217;29;20043;-63
2021/11/17 04:37:04;;;;;;;;;;;;;;;11.12;82.57;100999.22;4951085;29;20039;-64
2021/11/17 04:40:14;;;;;;;54.28;28.60;;;;;;;11.11;82.35;100999.56;4956616;28;19918;-64
2021/11/17 04:43:29;;;;;;;55.42;30.08;;;;;;;11.11;82.43;100992.22;4953481;28;20405;-64
2021/11/17 04:46:41;;;;;;;59.67;30.85;;;;;;;10.97;82.97;100999.63;4938412;29;20048;-64
2021/11/17 04:49:36;;;;;;;58.90;31.52;;;;;;;10.98;83.49;100995.00;4941918;28;20090;-63
2021/11/17 04:52:40;;;;;;;50.65;30.27;;;;;;;11.02;82.83;101004.94;4950817;28;20043;-62
2021/11/17 04:55:37;;;;;;;58.65;31.85;;;;;;;11.05;82.74;101011.69;4927912;29;20497;-62
2021/11/17 04:58:28;;;;;;;55.72;31.42;;;;;;;11.01;82.67;101013.44;4938640;28;20043;-62
2021/11/17 05:01:29;;;;;;;57.60;31.80;;;;;;;11.07;82.71;101021.13;4941980;29;20039;-62
2021/11/17 05:04:19;;;;;;;56.55;29.75;;;;;;;11.13;82.42;101019.91;4938414;28;20035;-62
2021/11/17 05:07:45;;;;;;;57.92;32.50;;;;;;;11.14;82.13;101009.81;4937121;29;20054;-63
2021/11/17 05:10:42;;;;;;;43.33;23.60;;;;;;;11.17;81.68;101019.28;4949566;28;20497;-63
2021/11/17 05:13:42;;;;;;;50.40;29.17;;;;;;;11.16;82.04;101018.50;4938932;28;20052;-63
2021/11/17 05:16:30;;;;;;;54.08;29.77;;;;;;;11.18;82.01;101026.31;4937277;28;20039;-63
2021/11/17 05:19:53;;;;;;;51.80;29.25;;;;;;;11.17;82.10;101014.66;4939707;28;20047;-64
2021/11/17 05:23:10;;;;;;;54.90;29.40;;;;;;;11.20;82.22;101014.03;4941273;28;20036;-62
2021/11/17 05:26:17;;;;;;;56.13;29.67;;;;;;;11.19;81.84;101017.84;4936399;29;20051;-64
2021/11/17 05:29:20;;;;;;;57.92;31.20;;;;;;;11.11;81.65;101024.88;4950164;28;20043;-63
2021/11/17 05:32:56;;;;;;;51.45;29.90;;;;;;;11.14;81.76;101024.22;4954710;28;20047;-62
2021/11/17 05:35:46;;;;;;;57.28;30.50;;;;;;;11.12;81.96;101028.41;4862018;29;20049;-63
2021/11/17 05:38:58;;;;;;;55.75;30.23;;;;;;;11.18;81.79;101031.75;4934047;28;20044;-64
2021/11/17 05:41:43;;;;;;;53.90;29.77;;;;;;;11.14;82.01;101031.59;4933701;28;20043;-62
2021/11/17 05:44:46;;;;;;;;;;;;;;;11.11;82.13;101037.66;4941035;28;20035;-62
2021/11/17 05:47:53;;;;;;;52.08;28.40;;;;;;;11.13;81.89;101029.97;4929076;29;19919;-62
2021/11/17 05:50:56;;;;;;;55.65;30.83;;;;;;;11.17;81.91;101024.72;4932577;28;20043;-63
2021/11/17 05:53:50;;;;;;;54.70;28.95;;;;;;;11.06;82.12;101033.16;4935285;29;20047;-63
2021/11/17 05:56:47;;;;;;;53.05;28.40;;;;;;;11.11;82.68;101022.16;4941614;28;20052;-64
2021/11/17 05:59:35;;;;;;;55.65;30.52;;;;;;;11.01;82.61;101027.03;4934170;29;20047;-63
2021/11/17 06:02:47;;;;;;;48.03;28.30;;;;;;;11.09;82.56;101024.34;4945767;28;20039;-62
2021/11/17 06:05:32;;;;;;;55.28;28.85;;;;;;;11.09;82.59;101037.16;4948778;28;20047;-63
2021/11/17 06:08:16;;;;;;;46.08;24.38;;;;;;;11.12;82.56;101034.63;4927641;29;20051;-62
2021/11/17 06:11:04;;;;;;;55.75;30.35;;;;;;;11.10;82.12;101041.50;4937486;28;20039;-64
2021/11/17 06:13:49;;;;;;;54.45;29.88;;;;;;;11.08;81.87;101038.28;4934005;28;20036;-62
2021/11/17 06:16:40;;;;;;;43.75;23.35;;;;;;;11.04;81.29;101043.53;4934874;29;20039;-62
2021/11/17 06:19:28;;;;;;;59.85;30.98;;;;;;;10.93;81.79;101036.72;4943502;28;20421;-63
2021/11/17 06:22:18;;;;;;;58.85;30.23;;;;;;;10.93;81.97;101036.72;4937874;28;20039;-62
2021/11/17 06:25:08;;;;;;;65.75;30.95;;;;;;;10.96;81.83;101032.59;4943503;28;20046;-63
2021/11/17 06:27:59;;;;;;;71.53;34.50;;;;;;;10.94;81.69;101035.63;4938072;28;20047;-64
2021/11/17 06:30:44;;;;;;;60.92;29.60;;;;;;;10.96;81.86;101044.28;4941539;28;20051;-62
2021/11/17 06:33:29;;;;;;;41.00;22.00;;;;;;;10.96;81.60;101036.13;4938032;28;20493;-62
2021/11/17 06:36:16;;;;;;;56.58;28.77;;;;;;;10.97;81.32;101051.31;4932672;28;20043;-62
2021/11/17 06:39:01;;;;;;;48.05;26.20;;;;;;;10.96;81.59;101038.84;4932980;29;20401;-62
2021/11/17 06:41:46;;;;;;;39.15;19.23;;;;;;;10.85;82.04;101039.41;4951559;28;20043;-64
2021/11/17 06:44:31;;;;;;;53.55;27.80;;;;;;;10.87;82.26;101035.25;4956094;28;20039;-62
2021/11/17 06:47:17;;;;;;;40.88;20.67;;;;;;;10.81;81.88;101047.38;4932595;29;20409;-62
2021/11/17 06:50:03;;;;;;;59.97;29.60;;;;;;;10.82;82.30;101046.25;4958285;28;20051;-62
2021/11/17 06:52:47;;;;;;;63.72;34.67;;;;;;;10.88;82.45;101050.47;4955465;29;20035;-62
2021/11/17 06:55:32;;;;;;;55.90;30.85;;;;;;;10.82;82.09;101059.84;4954448;29;20051;-62
2021/11/17 06:58:18;;;;;;;44.38;22.00;;;;;;;10.86;82.02;101066.31;4953257;29;20489;-63
2021/11/17 07:01:03;;;;;;;55.25;29.02;;;;;;;10.87;81.77;101069.84;4943359;29;20051;-63
2021/11/17 07:03:48;;;;;;;55.47;28.27;;;;;;;10.88;82.00;101072.22;4955231;29;20047;-62
2021/11/17 07:06:33;;;;;;;43.75;21.95;;;;;;;10.91;82.08;101078.97;4949150;29;20051;-63
2021/11/17 07:09:18;;;;;;;47.15;26.30;;;;;;;10.92;82.04;101084.09;4941023;29;20044;-63
2021/11/17 07:12:04;;;;;;;49.03;23.52;;;;;;;10.83;81.55;101077.78;4944825;29;20048;-64
2021/11/17 07:14:49;;;;;;;50.70;26.27;;;;;;;10.59;82.91;101074.53;4939194;29;20523;-64
2021/11/17 07:17:34;;;;;;;44.33;24.83;;;;;;;10.43;83.75;101078.69;4936597;29;20047;-62
2021/11/17 07:20:20;;;;;;;61.60;30.85;;;;;;;10.55;83.52;101084.44;4937772;28;20048;-62
2021/11/17 07:23:07;;;;;;;57.75;27.83;;;;;;;10.54;83.69;101094.50;4936607;29;20043;-64
2021/11/17 07:25:52;;;;;;;54.95;28.30;;;;;;;10.50;84.08;101092.69;4943461;29;20055;-62
2021/11/17 07:28:38;;;;;;;51.15;23.73;;;;;;;10.45;84.20;101100.97;4937377;29;20043;-63
2021/11/17 07:31:23;;;;;;;63.20;31.42;;;;;;;10.38;84.52;101101.38;4933429;29;20051;-63
2021/11/17 07:34:08;;;;;;;46.83;22.92;;;;;;;10.40;84.35;101095.63;4940970;28;20043;-63
2021/11/17 07:36:53;;;;;;;65.78;32.28;;;;;;;10.39;84.58;101110.34;4941657;29;20051;-63
2021/11/17 07:39:38;;;;;;;43.83;22.83;;;;;;;10.44;84.14;101108.31;4952246;29;20039;-63
2021/11/17 07:42:24;;;;;;;58.67;30.48;;;;;;;10.41;84.32;101111.66;4933548;29;20055;-62
2021/11/17 07:45:10;;;;;;;51.72;23.30;;;;;;;10.42;84.75;101112.44;4949748;28;20031;-62
2021/11/17 07:47:56;;;;;;;61.50;33.28;;;;;;;10.48;84.55;101117.47;4945702;28;20039;-63
2021/11/17 07:50:41;;;;;;;;;;;;;;;10.47;84.59;101120.47;4939801;29;20051;-63
2021/11/17 07:53:28;;;;;;;57.22;28.75;;;;;;;10.39;84.72;101123.91;4933256;29;19919;-63
2021/11/17 07:56:14;;;;;;;63.25;29.98;;;;;;;10.43;84.98;101119.47;4942686;28;20047;-65
2021/11/17 07:58:59;;;;;;;55.47;28.70;;;;;;;10.40;84.57;101125.53;4930379;29;20039;-63
2021/11/17 08:01:45;;;;;;;62.63;30.40;;;;;;;10.38;84.76;101119.59;4936095;28;20047;-63
2021/11/17 08:04:34;;;;;;;62.00;30.48;;;;;;;10.38;84.60;101125.03;4938877;28;20040;-63
2021/11/17 08:07:20;;;;;;;65.38;31.70;;;;;;;10.67;84.14;101125.47;4939128;29;20047;-62
2021/11/17 08:10:15;;;;;;;47.78;23.88;;;;;;;10.59;84.01;101123.50;4944743;28;20035;-63
2021/11/17 08:13:01;;;;;;;65.25;31.27;;;;;;;10.57;84.28;101131.13;4948624;28;20047;-63
2021/11/17 08:15:46;;;;;;;62.92;29.75;;;;;;;10.59;83.83;101134.38;4943914;29;20043;-63
2021/11/17 08:18:33;;;;;;;63.00;29.88;;;;;;;10.69;83.69;101124.06;4938959;28;20055;-62
2021/11/17 08:21:18;;;;;;;57.53;26.80;;;;;;;10.63;84.26;101135.38;4945048;28;20035;-66
2021/11/17 08:24:03;;;;;;;57.53;28.88;;;;;;;10.60;84.32;101133.28;4944035;29;20040;-68
2021/11/17 08:26:48;;;;;;;49.83;24.15;;;;;;;10.44;84.01;101137.41;4947186;28;20493;-66
2021/11/17 08:29:33;;;;;;;42.03;23.70;;;;;;;10.52;84.01;101142.13;4944713;28;20052;-66
2021/11/17 08:32:20;;;;;;;55.92;28.13;;;;;;;10.60;84.14;101146.88;4943979;28;20036;-66
2021/11/17 08:35:07;;;;;;;66.88;30.30;;;;;;;11.32;86.73;101146.84;4947000;28;20043;-65
2021/11/17 08:37:53;;;;;;;70.28;29.02;;;;;;;12.09;82.02;101147.31;4947792;28;20043;-62
2021/11/17 08:40:41;;;;;;;91.07;39.22;;;;;;;12.10;80.63;101135.28;4938665;29;20043;-63
2021/11/17 08:43:28;;;;;;;56.10;28.23;;;;;;;11.68;77.95;101142.13;4937457;28;20485;-63
2021/11/17 08:46:13;;;;;;;47.20;24.83;;;;;;;11.35;78.87;101138.06;4956525;28;20039;-62
2021/11/17 08:49:00;;;;;;;55.47;26.30;;;;;;;11.17;80.45;101141.78;4938692;28;20039;-62
2021/11/17 08:51:46;;;;;;;46.65;24.80;;;;;;;11.13;80.42;101139.66;4944571;28;20048;-62
2021/11/17 08:54:31;;;;;;;51.55;26.33;;;;;;;11.01;81.08;101133.16;4950743;28;20055;-63
2021/11/17 08:57:18;;;;;;;37.85;19.50;;;;;;;11.03;80.95;101129.00;4929354;29;20043;-63
2021/11/17 09:00:07;;;;;;;44.30;23.60;;;;;;;11.07;80.95;101137.38;4940366;29;20040;-62
2021/11/17 09:02:54;;;;;;;47.53;25.33;;;;;;;10.94;81.46;101133.56;4927331;28;20040;-62
2021/11/17 09:05:45;;;;;;;50.00;24.80;;;;;;;10.91;81.80;101144.28;4960207;28;20055;-62
2021/11/17 09:08:31;;;;;;;50.58;24.90;;;;;;;10.85;82.24;101138.16;4961066;28;20047;-63
2021/11/17 09:11:17;;;;;;;;;;;;;;;10.84;82.06;101144.69;4941484;29;20051;-62
2021/11/17 09:14:03;;;;;;;42.85;22.85;;;;;;;10.88;82.22;101148.41;4960090;28;19918;-62
2021/11/17 09:16:48;;;;;;;49.38;23.60;;;;;;;10.95;81.75;101142.56;4941610;28;20048;-63
2021/11/17 09:19:34;;;;;;;48.20;24.48;;;;;;;11.03;81.31;101147.25;4944939;29;20050;-63
2021/11/17 09:22:21;;;;;;;43.22;25.40;;;;;;;11.19;80.90;101150.41;4954264;28;20509;-63
2021/11/17 09:25:07;;;;;;;42.22;22.73;;;;;;;11.26;80.25;101145.38;4941295;29;20039;-63
2021/11/17 09:27:52;;;;;;;48.10;24.58;;;;;;;11.32;80.24;101153.09;4956167;28;20047;-63
2021/11/17 09:30:39;;;;;;;42.78;18.70;;;;;;;11.43;80.45;101154.44;4954261;28;20408;-63
2021/11/17 09:33:26;;;;;;;51.17;26.17;;;;;;;11.34;80.22;101150.06;4958092;28;20501;-63
2021/11/17 09:36:12;;;;;;;49.90;25.08;;;;;;;11.32;80.46;101152.31;4940593;28;20044;-63
2021/11/17 09:38:57;;;;;;;44.40;23.33;;;;;;;11.40;79.37;101159.72;4939723;28;20043;-63
2021/11/17 09:41:47;;;;;;;44.45;24.42;;;;;;;11.45;80.08;101162.31;4940305;28;20044;-63
2021/11/17 09:44:40;;;;;;;50.70;26.55;;;;;;;11.60;79.26;101161.94;4938581;28;20044;-63
2021/11/17 09:47:30;;;;;;;51.47;27.70;;;;;;;11.68;79.15;101172.09;4935666;28;21537;-63
2021/11/17 09:50:25;;;;;;;45.63;24.80;;;;;;;11.78;79.04;101171.88;4942159;28;20514;-63
2021/11/17 09:53:50;;;;;;;44.17;23.73;;;;;;;11.90;78.18;101174.81;4943362;28;20413;-64
2021/11/17 09:56:53;;;;;;;47.13;24.17;;;;;;;12.00;77.35;101173.72;4911367;29;20047;-64
2021/11/17 09:59:45;;;;;;;44.15;23.35;;;;;;;12.00;76.93;101169.09;4938756;29;20043;-64
2021/11/17 10:02:37;;;;;;;39.13;22.25;;;;;;;11.93;77.78;101176.91;4937681;28;20039;-63
2021/11/17 10:14:57;;;;;;;42.30;23.25;;;;;;;11.94;77.08;101159.44;4947622;28;20040;-65
2021/11/17 10:17:49;;;;;;;43.78;23.15;;;;;;;12.05;77.02;101159.16;4938959;29;20040;-64
2021/11/17 10:20:57;;;;;;;45.10;22.50;;;;;;;12.28;76.09;101157.97;4944691;28;20509;-64
2021/11/17 10:24:02;;;;;;;44.08;24.13;;;;;;;12.41;76.06;101152.41;4949538;28;20552;-63
2021/11/17 10:26:51;;;;;;;40.78;23.38;;;;;;;12.55;75.15;101163.19;4937034;28;20047;-64
2021/11/17 10:29:54;;;;;;;36.33;22.02;;;;;;;12.47;75.30;101153.06;4942971;28;20051;-63
2021/11/17 10:32:44;;;;;;;41.38;23.17;;;;;;;12.43;75.65;101150.19;4938677;28;20509;-63
2021/11/17 10:35:33;;;;;;;46.10;23.50;;;;;;;12.54;75.07;101153.41;4954997;28;20047;-63
2021/11/17 10:38:24;;;;;;;40.63;22.25;;;;;;;12.39;75.68;101148.41;4956041;28;20047;-64
2021/11/17 10:41:29;;;;;;;40.95;22.15;;;;;;;12.47;74.93;101150.34;4943063;29;20035;-64
2021/11/17 10:44:13;;;;;;;45.05;23.80;;;;;;;12.46;76.11;101151.44;4951367;28;20405;-66
2021/11/17 10:47:00;;;;;;;37.22;18.05;;;;;;;12.58;75.69;101143.47;4924257;29;20043;-66
2021/11/17 10:49:50;;;;;;;38.10;23.73;;;;;;;12.54;75.22;101142.50;4935470;29;20043;-65
2021/11/17 10:53:01;;;;;;;39.65;22.38;;;;;;;12.63;75.02;101128.88;4934516;29;20043;-66
2021/11/17 10:55:48;;;;;;;40.53;22.85;;;;;;;12.51;75.55;101124.03;4934083;29;20056;-68
2021/11/17 10:58:37;;;;;;;36.42;22.02;;;;;;;12.72;75.32;101129.69;4940838;29;20409;-65
2021/11/17 11:01:46;;;;;;;43.30;25.52;;;;;;;12.72;75.30;101129.69;4943189;29;20043;-66
2021/11/17 11:04:37;;;;;;;41.63;23.00;;;;;;;12.61;75.23;101129.19;4941618;29;20474;-65
2021/11/17 11:07:39;;;;;;;43.47;24.27;;;;;;;12.69;75.73;101124.88;4932920;29;20044;-64
2021/11/17 11:10:42;;;;;;;49.13;23.55;;;;;;;12.80;74.63;101135.13;4944661;29;20040;-65
2021/11/17 11:13:33;;;;;;;62.70;27.92;;;;;;;12.94;74.47;101132.28;4930873;29;20040;-64
2021/11/17 11:16:21;;;;;;;42.95;22.63;;;;;;;13.05;73.36;101138.22;4948786;29;20051;-65
2021/11/17 11:19:09;;;;;;;48.60;25.83;;;;;;;13.15;73.21;101137.94;4924375;29;20055;-64
2021/11/17 11:22:08;;;;;;;49.85;24.77;;;;;;;13.33;72.78;101128.59;4946719;28;20052;-64
2021/11/17 11:24:58;;;;;;;43.42;23.38;;;;;;;13.39;72.79;101126.50;4962078;28;20043;-63
2021/11/17 11:28:23;;;;;;;38.42;22.33;;;;;;;13.29;72.97;101119.44;4953128;28;20051;-64
2021/11/17 11:31:09;;;;;;;43.28;22.38;;;;;;;13.36;72.37;101127.94;4930161;29;20039;-64
2021/11/17 11:33:56;;;;;;;42.55;23.67;;;;;;;13.53;72.30;101124.38;4958221;28;20055;-63
2021/11/17 11:36:49;;;;;;;44.47;24.13;;;;;;;13.51;71.88;101119.22;4946903;28;20044;-65
2021/11/17 11:39:37;;;;;;;45.85;23.80;;;;;;;13.55;72.25;101124.88;4978179;23;20055;-80
2021/11/17 11:42:23;;;;;;;41.53;24.70;;;;;;;13.63;71.78;101119.38;4961095;28;20043;-81
2021/11/17 11:45:08;;;;;;;39.58;22.92;;;;;;;13.60;71.77;101121.97;4982290;28;20043;-80
2021/11/17 11:48:10;;;;;;;35.25;19.40;;;;;;;13.58;72.46;101124.19;4977000;28;20043;-80
2021/11/17 11:51:05;;;;;;;40.35;23.67;;;;;;;13.56;72.44;101124.50;4976027;28;20047;-80
2021/11/17 11:54:05;;;;;;;42.53;23.70;;;;;;;13.64;71.97;101118.25;4973722;28;20038;-81
2021/11/17 11:57:02;;;;;;;39.55;21.55;;;;;;;13.65;71.98;101116.31;4960459;28;20034;-80
2021/11/17 11:59:46;;;;;;;41.72;22.17;;;;;;;13.67;72.20;101112.13;4972058;28;20047;-82
2021/11/17 12:02:44;;;;;;;43.53;22.73;;;;;;;13.49;72.41;101118.75;4981194;28;20040;-82
2021/11/17 12:05:51;;;;;;;39.45;23.67;;;;;;;13.59;72.65;101115.69;4980395;28;20601;-81
2021/11/17 12:08:45;;;;;;;48.35;27.65;;;;;;;13.73;72.29;101120.94;4969366;28;20046;-81
2021/11/17 12:11:31;;;;;;;47.38;26.55;;;;;;;13.76;71.47;101117.56;4980448;28;20035;-80
2021/11/17 12:14:28;;;;;;;40.65;23.52;;;;;;;13.68;71.00;101108.25;4973744;28;20043;-81
2021/11/17 12:17:20;;;;;;;37.60;22.05;;;;;;;13.63;71.60;101119.38;4974378;28;20036;-80
2021/11/17 12:20:45;;;;;;;43.60;24.08;;;;;;;13.39;73.41;101110.09;4963141;28;20043;-79
2021/11/17 12:23:35;;;;;;;51.30;25.15;;;;;;;13.21;74.75;101114.78;4948329;28;20043;-77
2021/11/17 12:26:22;;;;;;;56.08;29.55;;;;;;;13.07;75.52;101111.38;4970817;28;20047;-77
2021/11/17 12:29:15;;;;;;;52.78;28.98;;;;;;;13.06;76.20;101118.78;4967173;28;20035;-77
2021/11/17 12:32:10;;;;;;;53.10;29.55;;;;;;;13.08;76.65;101113.81;4965696;28;20050;-77
2021/11/17 12:35:02;;;;;;;55.83;29.30;;;;;;;13.02;76.67;101115.09;4968024;28;20229;-79
2021/11/17 12:37:52;;;;;;;52.13;28.67;;;;;;;12.96;76.81;101112.81;4978471;28;20038;-77
2021/11/17 12:41:09;;;;;;;53.20;29.30;;;;;;;12.86;77.43;101119.41;4975906;28;20038;-77
2021/11/17 12:44:02;;;;;;;42.28;23.25;;;;;;;12.77;76.83;101104.97;4984205;28;20053;-77
2021/11/17 12:47:11;;;;;;;48.03;27.17;;;;;;;12.74;77.35;101100.97;4976615;28;20042;-77
2021/11/17 12:50:03;;;;;;;53.33;25.92;;;;;;;12.70;77.45;101110.09;4983585;28;20042;-77
2021/11/17 12:53:14;;;;;;;44.33;26.58;;;;;;;12.72;77.71;101105.94;4989499;28;20038;-77
2021/11/17 12:56:11;;;;;;;49.65;27.27;;;;;;;12.67;78.16;101097.91;4988436;28;20030;-76
2021/11/17 12:59:03;;;;;;;46.13;25.42;;;;;;;12.63;77.93;101096.94;4989093;28;20038;-77
2021/11/17 13:02:02;;;;;;;46.58;25.95;;;;;;;12.65;78.23;101085.69;4990894;28;20034;-74
2021/11/17 13:04:50;;;;;;;52.58;27.00;;;;;;;12.64;78.44;101084.09;4988408;28;20402;-75
2021/11/17 13:07:42;;;;;;;50.83;25.80;;;;;;;12.65;78.23;101091.13;4985305;28;20039;-75
2021/11/17 13:10:50;;;;;;;53.60;27.50;;;;;;;12.65;78.51;101091.94;4985244;28;20050;-76
2021/11/17 13:13:40;;;;;;;58.67;29.05;;;;;;;12.64;78.47;101093.09;4987854;28;20042;-76
2021/11/17 13:16:43;;;;;;;55.08;29.08;;;;;;;12.60;78.34;101089.38;4982583;28;20042;-76
2021/11/17 13:19:52;;;;;;;49.13;27.73;;;;;;;12.65;78.93;101100.13;4994763;28;20042;-76
2021/11/17 13:22:39;;;;;;;56.20;29.70;;;;;;;12.65;79.25;101091.94;4986354;28;20042;-76
2021/11/17 13:25:28;;;;;;;60.53;31.52;;;;;;;12.64;79.26;101089.56;4992069;28;20047;-77
2021/11/17 13:28:45;;;;;;;61.90;31.88;;;;;;;12.69;79.42;101092.94;4987328;28;20046;-77
2021/11/17 13:31:37;;;;;;;63.28;31.50;;;;;;;12.69;79.80;101098.38;4990546;28;20035;-78
2021/11/17 13:34:46;;;;;;;54.83;29.60;;;;;;;12.71;80.10;101085.22;4984876;28;20050;-77
2021/11/17 13:37:36;;;;;;;67.20;32.78;;;;;;;12.73;80.15;101093.09;4988079;28;20046;-76
2021/11/17 13:40:24;;;;;;;66.00;32.38;;;;;;;12.70;80.43;101093.72;4986973;28;20042;-76
2021/11/17 13:43:10;;;;;;;63.25;32.33;;;;;;;12.68;80.62;101091.31;4986475;28;20042;-76
2021/11/17 13:45:58;;;;;;;66.72;35.63;;;;;;;12.67;80.99;101086.97;4987539;28;20031;-76
2021/11/17 13:48:44;;;;;;;62.60;32.15;;;;;;;12.66;80.93;101085.38;4989015;28;20038;-76
2021/11/17 13:51:29;;;;;;;67.30;34.58;;;;;;;12.63;80.77;101086.03;4989370;28;20035;-77
2021/11/17 13:54:13;;;;;;;71.88;40.63;;;;;;;12.67;80.82;101092.44;4985653;28;20035;-76
2021/11/17 13:57:03;;;;;;;76.18;35.13;;;;;;;12.66;80.69;101095.47;4975679;28;20042;-76
2021/11/17 13:59:48;;;;;;;62.08;33.10;;;;;;;12.64;80.93;101095.81;4982830;28;20038;-76
2021/11/17 14:02:33;;;;;;;;;;;;;;;12.69;80.61;101103.84;4990238;28;20042;-77
2021/11/17 14:05:19;;;;;;;62.55;32.75;;;;;;;12.67;80.72;101095.16;4982713;28;19913;-76
2021/11/17 14:08:05;;;;;;;66.57;34.67;;;;;;;12.67;80.77;101095.16;4991479;28;20047;-76
2021/11/17 14:10:49;;;;;;;67.78;33.83;;;;;;;12.73;80.65;101088.44;4988103;28;20050;-77
2021/11/17 14:13:35;;;;;;;50.53;27.92;;;;;;;12.81;80.70;101087.63;4987219;28;20043;-75
2021/11/17 14:16:20;;;;;;;74.70;35.35;;;;;;;12.89;80.61;101083.31;4983971;28;20394;-77
2021/11/17 14:19:05;;;;;;;50.13;27.48;;;;;;;12.91;80.62;101082.97;4989678;28;20528;-78
2021/11/17 14:21:50;;;;;;;;;;;;;;;12.97;79.96;101081.69;4986529;28;20031;-76
2021/11/17 14:24:34;;;;;;;64.18;35.25;;;;;;;12.96;79.89;101080.88;4987463;28;19918;-76
2021/11/17 14:27:19;;;;;;;;;;;;;;;13.04;79.71;101084.75;4986362;28;20034;-77
2021/11/17 14:30:10;;;;;;;72.35;36.47;;;;;;;12.96;79.64;101085.53;4985702;28;19914;-76
2021/11/17 14:32:56;;;;;;;68.13;34.50;;;;;;;12.96;79.47;101080.06;4998230;28;20560;-76
2021/11/17 14:35:41;;;;;;;68.10;36.17;;;;;;;12.98;79.32;101084.09;4986131;28;20038;-76
2021/11/17 14:38:26;;;;;;;50.60;27.50;;;;;;;12.97;79.70;101089.88;4984731;28;20511;-76
2021/11/17 14:41:11;;;;;;;55.90;29.67;;;;;;;12.96;79.73;101091.00;4985937;28;20050;-76
2021/11/17 14:43:56;;;;;;;;;;;;;;;12.95;79.53;101089.41;4991619;28;20042;-77
2021/11/17 14:46:42;;;;;;;66.65;35.25;;;;;;;12.96;80.18;101089.06;4991030;28;20372;-77
2021/11/17 14:49:31;;;;;;;77.43;38.60;;;;;;;12.96;79.93;101094.53;4979314;28;20506;-76
2021/11/17 14:52:19;;;;;;;74.30;38.75;;;;;;;12.97;79.89;101103.53;4984169;28;20042;-77
2021/11/17 14:55:06;;;;;;;69.13;36.55;;;;;;;12.97;79.70;101103.53;4984945;28;20034;-76
2021/11/17 14:57:53;;;;;;;69.32;34.60;;;;;;;12.91;79.54;101102.88;4980772;28;20043;-76
2021/11/17 15:00:50;;;;;;;83.60;37.85;;;;;;;12.94;79.65;101110.44;4991186;28;20046;-76
2021/11/17 15:03:34;;;;;;;73.20;37.75;;;;;;;12.89;79.80;101107.06;4988720;28;20042;-77
2021/11/17 15:06:21;;;;;;;65.63;35.92;;;;;;;12.89;79.53;101101.59;4988068;28;20027;-77
2021/11/17 15:09:08;;;;;;;70.22;38.10;;;;;;;12.92;79.86;101104.50;4972654;28;20421;-77
2021/11/17 15:11:59;;;;;;;65.03;35.83;;;;;;;12.91;79.71;101111.06;4993779;28;20046;-76
2021/11/17 15:14:45;;;;;;;68.53;34.97;;;;;;;12.88;79.72;101108.19;4991259;28;20412;-76
2021/11/17 15:17:30;;;;;;;72.07;37.33;;;;;;;12.89;80.06;101102.41;4989482;28;20039;-76
2021/11/17 15:20:16;;;;;;;66.60;34.78;;;;;;;12.86;79.46;101106.56;4984853;28;20039;-76
2021/11/17 15:23:03;;;;;;;64.70;34.55;;;;;;;12.88;79.99;101111.72;4983329;28;20401;-76
2021/11/17 15:25:50;;;;;;;64.53;34.15;;;;;;;12.85;79.41;101096.78;4991706;28;20042;-78
2021/11/17 15:28:47;;;;;;;70.47;38.00;;;;;;;12.79;79.43;101100.81;4995159;28;20038;-77
2021/11/17 15:31:32;;;;;;;67.13;35.58;;;;;;;12.72;79.77;101100.47;4980679;28;20038;-76
2021/11/17 15:34:17;;;;;;;72.05;37.05;;;;;;;12.68;80.20;101102.25;4994266;28;20405;-77
2021/11/17 15:37:02;;;;;;;65.18;35.60;;;;;;;12.67;80.17;101106.09;4987964;28;20046;-76
2021/11/17 15:39:47;;;;;;;67.70;36.03;;;;;;;12.66;79.98;101099.00;4988345;28;20047;-77
2021/11/17 15:42:32;;;;;;;71.43;37.08;;;;;;;12.67;79.29;101099.81;4994378;28;20046;-76
2021/11/17 15:45:17;;;;;;;50.85;26.17;;;;;;;12.64;79.41;101106.72;4988499;28;20049;-77